createdAt,value
2018-06-09T00:02:18.573Z,3.80
2018-06-09T00:04:47.592Z,5.47
2018-06-09T00:07:16.621Z,3.97
2018-06-09T00:09:45.960Z,3.83
2018-06-09T00:12:15.092Z,5.07
2018-06-09T00:14:45.198Z,6.30
2018-06-09T00:17:14.502Z,3.77
2018-06-09T00:19:43.602Z,2.93
2018-06-09T00:22:12.660Z,2.87
2018-06-09T00:24:41.698Z,2.40
2018-06-09T00:27:10.681Z,2.77
2018-06-09T00:29:39.665Z,6.87
2018-06-09T00:32:08.685Z,2.60
2018-06-09T00:34:37.713Z,4.00
2018-06-09T00:37:06.709Z,6.20
2018-06-09T00:39:35.728Z,3.63
2018-06-09T00:42:04.709Z,5.27
2018-06-09T00:44:33.988Z,4.43
2018-06-09T00:47:02.981Z,5.17
2018-06-09T00:49:31.981Z,5.90
2018-06-09T00:52:01.124Z,2.67
2018-06-09T00:54:30.144Z,5.97
2018-06-09T00:56:59.178Z,6.53
2018-06-09T00:59:28.203Z,7.83
2018-06-09T01:01:57.233Z,5.50
2018-06-09T01:04:26.216Z,2.77
2018-06-09T01:06:55.190Z,2.70
2018-06-09T01:09:24.217Z,6.77
2018-06-09T01:11:53.205Z,6.43
2018-06-09T01:14:22.200Z,4.20
2018-06-09T01:16:51.217Z,7.10
2018-06-09T01:19:20.200Z,3.87
2018-06-09T01:21:49.268Z,3.57
2018-06-09T01:24:18.308Z,2.90
2018-06-09T01:26:47.406Z,7.40
2018-06-09T01:29:16.541Z,3.80
2018-06-09T01:31:45.577Z,3.93
2018-06-09T01:34:14.987Z,4.10
2018-06-09T01:36:44.097Z,2.80
2018-06-09T01:39:13.188Z,4.00
2018-06-09T01:41:42.298Z,7.97
2018-06-09T01:44:11.293Z,4.23
2018-06-09T01:46:40.312Z,3.70
2018-06-09T01:49:09.301Z,12.80
2018-06-09T01:51:38.492Z,4.53
2018-06-09T01:54:07.481Z,5.37
2018-06-09T01:56:36.469Z,3.77
2018-06-09T01:59:05.484Z,3.60
2018-06-09T02:01:34.480Z,5.53
2018-06-09T02:04:03.519Z,3.30
2018-06-09T02:06:32.524Z,6.70
2018-06-09T02:09:01.552Z,4.40
2018-06-09T02:11:30.637Z,5.17
2018-06-09T02:13:59.655Z,6.20
2018-06-09T02:16:28.641Z,3.37
2018-06-09T02:18:57.903Z,3.87
2018-06-09T02:21:26.905Z,5.60
2018-06-09T02:23:55.899Z,3.60
2018-06-09T02:26:25.173Z,2.90
2018-06-09T02:28:54.165Z,5.00
2018-06-09T02:31:23.149Z,4.47
2018-06-09T02:33:52.177Z,8.90
2018-06-09T02:36:21.008Z,12.40
2018-06-09T02:38:49.970Z,5.20
2018-06-09T02:41:18.997Z,11.70
2018-06-09T02:43:48.066Z,14.70
2018-06-09T02:46:17.132Z,7.53
2018-06-09T02:48:46.152Z,7.30
2018-06-09T02:51:15.571Z,3.20
2018-06-09T02:53:44.752Z,5.43
2018-06-09T02:56:13.888Z,5.70
2018-06-09T02:58:42.919Z,3.33
2018-06-09T03:01:11.933Z,5.20
2018-06-09T03:03:40.944Z,4.33
2018-06-09T03:06:09.937Z,3.87
2018-06-09T03:08:39.033Z,10.80
2018-06-09T03:11:08.053Z,4.83
2018-06-09T03:13:37.064Z,4.30
2018-06-09T03:16:06.036Z,7.90
2018-06-09T03:18:35.048Z,4.43
2018-06-09T03:21:04.401Z,3.67
2018-06-09T03:23:33.385Z,3.70
2018-06-09T03:26:02.392Z,6.10
2018-06-09T03:28:31.460Z,5.07
2018-06-09T03:31:00.459Z,5.53
2018-06-09T03:33:29.546Z,6.80
2018-06-09T03:35:58.932Z,5.60
2018-06-09T03:38:27.916Z,4.83
2018-06-09T03:40:56.905Z,4.60
2018-06-09T03:43:25.964Z,6.10
2018-06-09T03:45:54.936Z,7.10
2018-06-09T03:48:24.221Z,4.30
2018-06-09T03:50:53.209Z,11.20
2018-06-09T03:53:22.201Z,9.10
2018-06-09T03:55:51.207Z,13.93
2018-06-09T03:58:20.229Z,6.53
2018-06-09T04:00:49.248Z,7.27
2018-06-09T04:03:18.233Z,4.70
2018-06-09T04:05:47.308Z,4.07
2018-06-09T04:08:16.417Z,9.10
2018-06-09T04:10:45.609Z,6.23
2018-06-09T04:13:14.781Z,5.30
2018-06-09T04:15:43.982Z,5.07
2018-06-09T04:18:13.664Z,6.20
2018-06-09T04:20:42.709Z,5.60
2018-06-09T04:23:11.693Z,7.50
2018-06-09T04:25:40.824Z,6.83
2018-06-09T04:28:10.041Z,7.50
2018-06-09T04:30:39.117Z,6.80
2018-06-09T04:33:08.231Z,5.23
2018-06-09T04:35:37.418Z,9.60
2018-06-09T04:38:06.398Z,4.90
2018-06-09T04:40:35.381Z,5.97
2018-06-09T04:43:04.392Z,7.10
2018-06-09T04:45:33.433Z,4.83
2018-06-09T04:48:02.433Z,6.73
2018-06-09T04:50:31.685Z,7.60
2018-06-09T04:53:00.492Z,8.10
2018-06-09T04:55:29.144Z,5.30
2018-06-09T04:57:58.145Z,4.57
2018-06-09T05:00:27.495Z,6.50
2018-06-09T05:02:56.594Z,4.27
2018-06-09T05:05:25.581Z,7.57
2018-06-09T05:07:54.600Z,5.60
2018-06-09T05:10:23.589Z,6.77
2018-06-09T05:12:52.806Z,4.97
2018-06-09T05:15:21.812Z,11.83
2018-06-09T05:17:50.785Z,6.03
2018-06-09T05:20:20.304Z,8.00
2018-06-09T05:22:49.712Z,5.47
2018-06-09T05:25:19.081Z,5.40
2018-06-09T05:27:48.538Z,5.77
2018-06-09T05:30:18.721Z,6.17
2018-06-09T05:32:48.709Z,5.70
2018-06-09T05:35:18.434Z,15.33
2018-06-09T05:37:48.496Z,7.80
2018-06-09T05:40:18.390Z,9.77
2018-06-09T05:42:48.316Z,9.30
2018-06-09T05:45:17.824Z,4.93
2018-06-09T05:47:47.727Z,6.10
2018-06-09T05:50:17.460Z,5.13
2018-06-09T05:52:47.777Z,4.37
2018-06-09T05:55:17.493Z,3.80
2018-06-09T05:57:46.996Z,7.00
2018-06-09T06:00:16.909Z,9.17
2018-06-09T06:02:46.756Z,6.63
2018-06-09T06:05:16.835Z,4.60
2018-06-09T06:07:46.809Z,5.67
2018-06-09T06:10:17.104Z,5.57
2018-06-09T06:12:46.645Z,3.90
2018-06-09T06:15:16.501Z,5.10
2018-06-09T06:17:46.299Z,3.13
2018-06-09T06:20:16.252Z,4.30
2018-06-09T06:22:45.785Z,4.73
2018-06-09T06:25:15.346Z,5.47
2018-06-09T06:27:44.669Z,3.80
2018-06-09T06:30:13.686Z,3.90
2018-06-09T06:32:42.911Z,4.23
2018-06-09T06:35:12.016Z,4.57
2018-06-09T06:37:41.029Z,3.20
2018-06-09T06:40:10.049Z,3.67
2018-06-09T06:42:39.105Z,3.43
2018-06-09T06:45:08.127Z,4.10
2018-06-09T06:47:37.432Z,7.67
2018-06-09T06:50:06.432Z,2.73
2018-06-09T06:52:35.426Z,2.10
2018-06-09T06:55:04.482Z,5.67
2018-06-09T06:57:33.497Z,5.53
2018-06-09T07:00:02.733Z,5.93
2018-06-09T07:02:31.761Z,2.90
2018-06-09T07:05:00.754Z,3.50
2018-06-09T07:07:29.773Z,2.83
2018-06-09T07:09:59.791Z,5.40
2018-06-09T07:12:28.852Z,5.57
2018-06-09T07:14:57.872Z,2.87
2018-06-09T07:17:26.932Z,2.07
2018-06-09T07:19:55.957Z,3.03
2018-06-09T07:22:25.233Z,6.00
2018-06-09T07:24:54.226Z,4.47
2018-06-09T07:27:23.235Z,3.30
2018-06-09T07:29:52.257Z,2.57
2018-06-09T07:32:21.325Z,6.43
2018-06-09T07:34:50.303Z,3.37
2018-06-09T07:37:19.336Z,2.80
2018-06-09T07:39:48.381Z,2.57
2018-06-09T07:42:17.497Z,2.30
2018-06-09T07:44:46.648Z,6.10
2018-06-09T07:47:15.764Z,2.30
2018-06-09T07:49:44.854Z,5.33
2018-06-09T07:52:14.084Z,3.23
2018-06-09T07:54:43.125Z,9.13
2018-06-09T07:57:12.508Z,3.03
2018-06-09T07:59:41.623Z,2.03
2018-06-09T08:02:10.625Z,6.50
2018-06-09T08:04:39.725Z,3.00
2018-06-09T08:07:08.713Z,3.70
2018-06-09T08:09:37.736Z,2.63
2018-06-09T08:12:06.713Z,4.70
2018-06-09T08:14:35.697Z,2.30
2018-06-09T08:17:04.717Z,4.63
2018-06-09T08:19:33.755Z,5.80
2018-06-09T08:22:02.872Z,4.50
2018-06-09T08:24:31.882Z,8.20
2018-06-09T08:27:00.925Z,3.97
2018-06-09T08:29:29.940Z,4.97
2018-06-09T08:31:58.920Z,1.93
2018-06-09T08:34:28.164Z,5.10
2018-06-09T08:36:57.215Z,4.90
2018-06-09T08:39:26.215Z,4.00
2018-06-09T08:41:55.249Z,3.43
2018-06-09T08:44:24.233Z,2.70
2018-06-09T08:46:53.027Z,3.10
2018-06-09T08:49:22.628Z,5.07
2018-06-09T08:51:51.625Z,2.83
2018-06-09T08:54:20.596Z,4.23
2018-06-09T08:56:49.987Z,2.93
2018-06-09T08:59:19.105Z,2.30
2018-06-09T09:01:48.130Z,4.10
2018-06-09T09:04:17.249Z,3.37
2018-06-09T09:06:46.548Z,4.67
2018-06-09T09:09:15.771Z,2.57
2018-06-09T09:11:44.821Z,5.10
2018-06-09T09:14:13.932Z,6.53
2018-06-09T09:16:43.033Z,2.40
2018-06-09T09:19:12.080Z,3.53
2018-06-09T09:21:41.114Z,3.47
2018-06-09T09:24:10.127Z,3.30
2018-06-09T09:26:39.117Z,3.80
2018-06-09T09:29:08.261Z,4.63
2018-06-09T09:31:37.241Z,6.20
2018-06-09T09:34:06.225Z,4.10
2018-06-09T09:36:35.329Z,3.00
2018-06-09T09:39:07.564Z,5.57
2018-06-09T09:41:36.936Z,2.70
2018-06-09T09:44:06.127Z,6.77
2018-06-09T09:46:35.193Z,2.17
2018-06-09T09:49:04.449Z,7.70
2018-06-09T09:51:33.610Z,2.17
2018-06-09T09:54:02.800Z,4.10
2018-06-09T09:56:32.059Z,3.23
2018-06-09T09:59:01.053Z,4.00
2018-06-09T10:01:30.177Z,2.10
2018-06-09T10:03:59.169Z,1.90
2018-06-09T10:06:28.151Z,3.53
2018-06-09T10:08:57.561Z,2.33
2018-06-09T10:11:26.544Z,4.17
2018-06-09T10:13:55.848Z,1.87
2018-06-09T10:16:25.244Z,7.27
2018-06-09T10:18:54.428Z,2.70
2018-06-09T10:21:23.427Z,3.67
2018-06-09T10:23:52.264Z,2.30
2018-06-09T10:26:21.128Z,3.13
2018-06-09T10:28:50.198Z,2.30
2018-06-09T10:31:19.532Z,1.90
2018-06-09T10:33:48.693Z,6.53
2018-06-09T10:36:17.910Z,3.07
2018-06-09T10:38:47.222Z,5.37
2018-06-09T10:41:16.352Z,2.50
2018-06-09T10:43:45.480Z,6.53
2018-06-09T10:46:14.629Z,3.37
2018-06-09T10:48:43.757Z,2.57
2018-06-09T10:51:19.810Z,3.47
2018-06-09T10:53:48.848Z,4.33
2018-06-09T10:56:17.847Z,5.00
2018-06-09T10:58:46.912Z,2.23
2018-06-09T11:01:16.011Z,4.40
2018-06-09T11:03:45.825Z,2.30
2018-06-09T11:06:14.883Z,2.13
2018-06-09T11:08:43.839Z,3.43
2018-06-09T11:11:13.049Z,13.83
2018-06-09T11:13:42.139Z,7.50
2018-06-09T11:16:11.345Z,1.70
2018-06-09T11:18:40.373Z,2.60
2018-06-09T11:21:09.637Z,2.93
2018-06-09T11:23:38.772Z,3.20
2018-06-09T11:26:08.072Z,2.57
2018-06-09T11:28:37.106Z,2.50
2018-06-09T11:31:06.387Z,3.90
2018-06-09T11:33:35.709Z,2.37
2018-06-09T11:36:04.909Z,2.30
2018-06-09T11:38:34.220Z,1.90
2018-06-09T11:41:03.413Z,9.63
2018-06-09T11:43:33.145Z,1.83
2018-06-09T11:46:02.323Z,2.80
2018-06-09T11:48:31.504Z,1.53
2018-06-09T11:51:00.637Z,2.67
2018-06-09T11:53:29.693Z,4.83
2018-06-09T11:55:58.736Z,2.40
2018-06-09T11:58:28.152Z,2.77
2018-06-09T12:00:57.133Z,8.30
2018-06-09T12:03:26.799Z,2.80
2018-06-09T12:05:56.884Z,2.60
2018-06-09T12:08:25.949Z,6.43
2018-06-09T12:10:55.276Z,1.87
2018-06-09T12:13:24.509Z,2.73
2018-06-09T12:15:54.213Z,2.53
2018-06-09T12:18:24.107Z,3.90
2018-06-09T12:20:53.353Z,4.17
2018-06-09T12:23:22.341Z,3.00
2018-06-09T12:25:51.370Z,3.20
2018-06-09T12:28:20.226Z,1.80
2018-06-09T12:30:49.190Z,2.00
2018-06-09T12:33:18.604Z,9.83
2018-06-09T12:35:48.013Z,2.90
2018-06-09T12:38:18.351Z,1.87
2018-06-09T12:40:47.856Z,2.00
2018-06-09T12:43:19.203Z,3.50
2018-06-09T12:45:48.429Z,2.57
2018-06-09T12:48:17.700Z,8.60
2018-06-09T12:50:47.101Z,3.10
2018-06-09T12:53:16.436Z,2.00
2018-06-09T12:55:45.829Z,2.83
2018-06-09T12:58:15.224Z,2.63
2018-06-09T13:00:45.052Z,1.60
2018-06-09T13:03:14.580Z,3.33
2018-06-09T13:05:43.946Z,9.03
2018-06-09T13:08:13.709Z,2.77
2018-06-09T13:10:43.073Z,1.73
2018-06-09T13:13:12.114Z,1.60
2018-06-09T13:15:41.149Z,5.73
2018-06-09T13:18:10.144Z,2.33
2018-06-09T13:20:39.173Z,2.37
2018-06-09T13:23:08.188Z,3.00
2018-06-09T13:25:37.185Z,3.00
2018-06-09T13:28:06.748Z,3.03
2018-06-09T13:30:35.782Z,2.20
2018-06-09T13:33:04.797Z,4.10
2018-06-09T13:35:33.792Z,6.63
2018-06-09T13:38:02.808Z,3.47
2018-06-09T13:40:32.089Z,3.70
2018-06-09T13:43:01.550Z,2.57
2018-06-09T13:45:30.769Z,3.00
2018-06-09T13:48:00.072Z,4.90
2018-06-09T13:50:29.304Z,6.00
2018-06-09T13:52:58.922Z,7.03
2018-06-09T13:55:28.554Z,5.33
2018-06-09T13:57:57.579Z,8.93
2018-06-09T14:00:26.794Z,2.63
2018-06-09T14:02:56.149Z,2.50
2018-06-09T14:05:25.148Z,3.27
2018-06-09T14:07:54.134Z,3.40
2018-06-09T14:10:23.020Z,2.17
2018-06-09T14:12:51.924Z,3.53
2018-06-09T14:15:20.917Z,3.70
2018-06-09T14:17:50.385Z,3.53
2018-06-09T14:20:19.378Z,5.43
2018-06-09T14:22:48.416Z,4.37
2018-06-09T14:25:17.617Z,2.33
2018-06-09T14:27:46.774Z,2.27
2018-06-09T14:30:16.281Z,4.00
2018-06-09T14:32:46.040Z,3.43
2018-06-09T14:35:15.081Z,2.47
2018-06-09T14:37:44.964Z,3.63
2018-06-09T14:40:14.225Z,2.30
2018-06-09T14:42:43.492Z,3.77
2018-06-09T14:45:13.427Z,3.87
2018-06-09T14:47:43.281Z,3.60
2018-06-09T14:50:13.540Z,3.43
2018-06-09T14:52:43.071Z,5.33
2018-06-09T14:55:12.961Z,4.50
2018-06-09T14:57:42.317Z,2.63
2018-06-09T15:00:12.039Z,5.10
2018-06-09T15:02:41.679Z,3.87
2018-06-09T15:05:10.921Z,8.10
2018-06-09T15:07:40.675Z,5.17
2018-06-09T15:10:09.997Z,5.10
2018-06-09T15:12:39.563Z,1.70
2018-06-09T15:15:08.729Z,3.80
2018-06-09T15:17:37.711Z,1.87
2018-06-09T15:20:06.713Z,2.50
2018-06-09T15:22:35.792Z,2.80
2018-06-09T15:25:04.814Z,41.73
2018-06-09T15:27:33.796Z,3.10
2018-06-09T15:30:02.789Z,3.33
2018-06-09T15:32:31.809Z,1.90
2018-06-09T15:35:01.225Z,5.83
2018-06-09T15:37:30.523Z,2.30
2018-06-09T15:39:59.861Z,4.67
2018-06-09T15:42:29.117Z,4.60
2018-06-09T15:44:58.188Z,2.73
2018-06-09T15:47:27.159Z,7.70
2018-06-09T15:49:56.450Z,5.60
2018-06-09T15:52:25.441Z,2.50
2018-06-09T15:54:54.504Z,1.83
2018-06-09T15:57:23.653Z,1.87
2018-06-09T15:59:52.718Z,3.60
2018-06-09T16:02:21.925Z,3.13
2018-06-09T16:04:50.908Z,2.80
2018-06-09T16:07:20.013Z,3.17
2018-06-09T16:09:48.917Z,10.87
2018-06-09T16:12:17.905Z,4.77
2018-06-09T16:14:47.467Z,4.97
2018-06-09T16:17:16.593Z,3.33
2018-06-09T16:19:46.203Z,10.13
2018-06-09T16:22:15.488Z,5.17
2018-06-09T16:24:44.557Z,44.47
2018-06-09T16:27:13.761Z,13.80
2018-06-09T16:29:43.050Z,8.73
2018-06-09T16:32:13.005Z,2.30
2018-06-09T16:34:42.490Z,3.57
2018-06-09T16:37:12.196Z,6.90
2018-06-09T16:39:41.431Z,2.40
2018-06-09T16:42:13.745Z,5.83
2018-06-09T16:44:43.448Z,3.57
2018-06-09T16:47:13.600Z,3.70
2018-06-09T16:49:43.141Z,3.17
2018-06-09T16:52:12.476Z,4.80
2018-06-09T16:54:41.752Z,2.97
2018-06-09T16:57:12.606Z,3.63
2018-06-09T16:59:42.274Z,2.70
2018-06-09T17:02:11.514Z,4.10
2018-06-09T17:04:41.147Z,3.73
2018-06-09T17:07:10.742Z,4.00
2018-06-09T17:09:40.005Z,8.27
2018-06-09T17:12:09.623Z,6.23
2018-06-09T17:14:38.970Z,4.47
2018-06-09T17:17:08.037Z,5.20
2018-06-09T17:19:36.841Z,2.47
2018-06-09T17:22:05.759Z,2.70
2018-06-09T17:24:34.733Z,4.00
2018-06-09T17:27:03.764Z,4.57
2018-06-09T17:29:33.289Z,5.40
2018-06-09T17:32:02.338Z,2.50
2018-06-09T17:34:31.400Z,3.47
2018-06-09T17:37:00.739Z,6.30
2018-06-09T17:39:30.391Z,2.93
2018-06-09T17:41:59.504Z,4.30
2018-06-09T17:44:29.290Z,3.67
2018-06-09T17:46:58.665Z,7.77
2018-06-09T17:49:27.669Z,2.40
2018-06-09T17:51:56.692Z,5.73
2018-06-09T17:54:25.740Z,1.93
2018-06-09T17:56:54.766Z,2.23
2018-06-09T17:59:23.993Z,5.23
2018-06-09T18:01:53.271Z,3.53
2018-06-09T18:04:22.369Z,3.77
2018-06-09T18:06:51.475Z,3.23
2018-06-09T18:09:20.474Z,4.80
2018-06-09T18:11:49.510Z,5.77
2018-06-09T18:14:18.579Z,1.80
2018-06-09T18:16:48.015Z,3.00
2018-06-09T18:19:17.355Z,6.30
2018-06-09T18:21:47.298Z,3.23
2018-06-09T18:24:16.473Z,3.57
2018-06-09T18:26:46.472Z,4.67
2018-06-09T18:29:16.097Z,5.43
2018-06-09T18:31:45.265Z,11.93
2018-06-09T18:34:14.733Z,7.17
2018-06-09T18:36:44.166Z,7.40
2018-06-09T18:39:13.513Z,7.50
2018-06-09T18:41:42.641Z,9.37
2018-06-09T18:44:11.755Z,8.33
2018-06-09T18:46:41.276Z,8.20
2018-06-09T18:49:10.602Z,8.83
2018-06-09T18:51:39.780Z,11.73
2018-06-09T18:54:08.850Z,10.00
2018-06-09T18:56:37.882Z,9.27
2018-06-09T18:59:06.913Z,9.07
2018-06-09T19:01:35.896Z,8.73
2018-06-09T19:04:05.234Z,7.80
2018-06-09T19:06:34.449Z,9.60
2018-06-09T19:09:03.696Z,9.87
2018-06-09T19:11:32.699Z,9.07
2018-06-09T19:14:02.211Z,9.57
2018-06-09T19:16:31.615Z,11.50
2018-06-09T19:19:01.392Z,10.77
2018-06-09T19:21:30.541Z,9.70
2018-06-09T19:23:59.604Z,10.47
2018-06-09T19:26:28.940Z,8.13
2018-06-09T19:29:00.338Z,8.37
2018-06-09T19:31:29.548Z,9.50
2018-06-09T19:33:59.085Z,8.63
2018-06-09T19:36:28.150Z,10.27
2018-06-09T19:38:57.244Z,9.77
2018-06-09T19:41:26.297Z,9.10
2018-06-09T19:43:55.377Z,8.93
2018-06-09T19:46:24.376Z,9.23
2018-06-09T19:48:53.477Z,8.30
2018-06-09T19:51:22.464Z,8.57
2018-06-09T19:53:52.381Z,8.93
2018-06-09T19:56:21.443Z,8.00
2018-06-09T19:58:50.490Z,7.80
2018-06-09T20:01:19.722Z,14.80
2018-06-09T20:03:48.741Z,8.20
2018-06-09T20:06:17.768Z,7.93
2018-06-09T20:08:47.370Z,8.87
2018-06-09T20:11:16.620Z,9.10
2018-06-09T20:13:47.830Z,10.30
2018-06-09T20:16:17.451Z,9.10
2018-06-09T20:18:46.984Z,8.80
2018-06-09T20:21:17.021Z,10.43
2018-06-09T20:23:46.597Z,9.87
2018-06-09T20:26:16.191Z,12.57
2018-06-09T20:28:46.190Z,9.40
2018-06-09T20:31:19.395Z,8.93
2018-06-09T20:33:49.056Z,11.43
2018-06-09T20:36:18.352Z,9.87
2018-06-09T20:38:48.467Z,9.60
2018-06-09T20:41:17.501Z,13.60
2018-06-09T20:43:46.590Z,9.60
2018-06-09T20:46:16.020Z,9.93
2018-06-09T20:48:45.397Z,10.57
2018-06-09T20:51:14.540Z,9.33
2018-06-09T20:53:43.745Z,13.53
2018-06-09T20:56:12.837Z,17.70
2018-06-09T20:58:42.089Z,11.80
2018-06-09T21:01:11.467Z,12.43
2018-06-09T21:03:40.548Z,14.97
2018-06-09T21:06:10.248Z,9.97
2018-06-09T21:08:39.585Z,12.30
2018-06-09T21:11:08.797Z,11.70
2018-06-09T21:13:37.872Z,13.23
2018-06-09T21:16:06.924Z,9.87
2018-06-09T21:18:35.924Z,11.47
2018-06-09T21:21:04.965Z,14.00
2018-06-09T21:23:34.234Z,10.63
2018-06-09T21:26:03.354Z,17.77
2018-06-09T21:28:37.852Z,11.63
2018-06-09T21:31:12.303Z,12.13
2018-06-09T21:33:58.321Z,13.73
2018-06-09T21:36:29.952Z,13.90
2018-06-09T21:39:00.014Z,11.97
2018-06-09T21:41:34.776Z,13.43
2018-06-09T21:44:09.591Z,13.53
2018-06-09T21:46:45.402Z,13.70
2018-06-09T21:49:15.429Z,19.40
2018-06-09T21:51:44.664Z,18.20
2018-06-09T21:54:13.777Z,13.90
2018-06-09T21:56:43.020Z,13.13
2018-06-09T21:59:12.313Z,13.30
2018-06-09T22:01:41.501Z,15.17
2018-06-09T22:04:10.894Z,13.63
2018-06-09T22:06:40.090Z,14.97
2018-06-09T22:09:09.415Z,17.60
2018-06-09T22:11:38.530Z,13.43
2018-06-09T22:14:07.542Z,12.70
2018-06-09T22:16:36.568Z,15.00
2018-06-09T22:19:05.620Z,17.50
2018-06-09T22:21:34.648Z,16.80
2018-06-09T22:24:03.682Z,14.83
2018-06-09T22:26:32.709Z,14.73
2018-06-09T22:29:01.710Z,13.73
2018-06-09T22:31:30.695Z,13.70
2018-06-09T22:34:01.074Z,13.77
2018-06-09T22:36:30.369Z,15.07
2018-06-09T22:38:59.412Z,15.23
2018-06-09T22:41:28.617Z,14.00
2018-06-09T22:43:58.289Z,15.00
2018-06-09T22:46:27.696Z,14.13
2018-06-09T22:48:56.969Z,15.83
2018-06-09T22:51:26.124Z,16.23
2018-06-09T22:53:55.152Z,15.20
2018-06-09T22:56:24.389Z,17.40
2018-06-09T22:58:53.421Z,15.80
2018-06-09T23:01:22.417Z,16.13
2018-06-09T23:03:51.477Z,15.47
2018-06-09T23:06:20.482Z,15.70
2018-06-09T23:08:49.291Z,15.03
2018-06-09T23:11:18.188Z,14.87
2018-06-09T23:13:47.271Z,15.90
2018-06-09T23:16:16.069Z,20.40
2018-06-09T23:18:45.017Z,14.23
2018-06-09T23:21:14.060Z,16.80
2018-06-09T23:23:43.257Z,12.53
2018-06-09T23:26:12.462Z,15.70
2018-06-09T23:28:41.562Z,13.13
2018-06-09T23:31:10.774Z,15.00
2018-06-09T23:33:39.786Z,14.43
2018-06-09T23:36:08.916Z,13.63
2018-06-09T23:38:37.921Z,14.53
2018-06-09T23:41:06.924Z,16.23
2018-06-09T23:43:35.944Z,21.00
2018-06-09T23:46:04.950Z,16.10
2018-06-09T23:48:34.006Z,17.90
2018-06-09T23:51:03.034Z,16.53
2018-06-09T23:53:32.023Z,15.67
2018-06-09T23:56:01.025Z,16.90
2018-06-09T23:58:30.057Z,15.33
